Time;durP1;ratioP1;P1;durP2;ratioP2;P2;SDS_P1;SDS_P2;PMS_P1;PMS_P2;Temp;Humidity;BMP_temperature;BMP_pressure;BME280_temperature;BME280_humidity;BME280_pressure;Samples;Min_cycle;Max_cycle;Signal;HPM_P1;HPM_P2
2022/01/16 00:04:45;;;;;;;3.80;2.08;;;;;;;-2.46;65.25;98511.50;4995519;28;20054;-81
2022/01/16 00:07:12;;;;;;;3.63;2.10;;;;;;;-2.40;65.51;98532.19;4994214;28;20061;-83
2022/01/16 00:09:39;;;;;;;6.40;2.50;;;;;;;-2.35;65.62;98525.53;4994566;28;20050;-82
2022/01/16 00:12:07;;;;;;;5.07;1.88;;;;;;;-2.27;65.42;98536.03;4994601;28;20058;-82
2022/01/16 00:14:34;;;;;;;8.18;2.28;;;;;;;-2.23;65.47;98537.88;4994859;28;20054;-80
2022/01/16 00:17:01;;;;;;;3.55;1.92;;;;;;;-2.22;65.60;98537.03;4995405;28;20531;-85
2022/01/16 00:19:28;;;;;;;4.40;2.10;;;;;;;-2.18;65.22;98532.91;4977725;28;20464;-83
2022/01/16 00:21:57;;;;;;;3.20;1.77;;;;;;;-2.33;65.85;98508.53;4993167;28;20431;-81
2022/01/16 00:24:24;;;;;;;3.92;2.17;;;;;;;-2.38;65.98;98520.31;4978400;28;20058;-84
2022/01/16 00:26:51;;;;;;;3.92;1.80;;;;;;;-2.57;65.64;98505.19;4996519;28;20069;-81
2022/01/16 00:29:18;;;;;;;5.00;2.10;;;;;;;-2.54;65.56;98515.50;4994996;28;20050;-81
2022/01/16 00:31:45;;;;;;;4.88;1.70;;;;;;;-2.45;65.84;98530.28;4995821;28;20058;-80
2022/01/16 00:34:12;;;;;;;4.70;2.13;;;;;;;-2.50;65.77;98543.78;4995930;28;20049;-81
2022/01/16 00:36:40;;;;;;;3.35;1.83;;;;;;;-2.57;66.07;98544.41;4995720;28;20054;-79
2022/01/16 00:39:07;;;;;;;3.75;1.80;;;;;;;-2.77;66.09;98518.16;4995095;28;20101;-83
2022/01/16 00:41:35;;;;;;;4.38;1.88;;;;;;;-2.63;65.96;98548.44;4995865;28;20069;-82
2022/01/16 00:44:03;;;;;;;3.97;1.73;;;;;;;-2.63;66.34;98564.63;4995800;28;20559;-82
2022/01/16 00:46:30;;;;;;;5.63;2.70;;;;;;;-2.63;66.19;98566.34;4996154;28;20500;-81
2022/01/16 00:48:57;;;;;;;4.40;1.92;;;;;;;-2.70;66.32;98555.88;4978868;28;20073;-81
2022/01/16 00:51:25;;;;;;;1.88;1.35;;;;;;;-2.62;66.55;98575.75;4979410;28;20499;-82
2022/01/16 00:53:52;;;;;;;2.83;1.42;;;;;;;-2.62;66.47;98591.97;4996146;28;20080;-82
2022/01/16 00:56:19;;;;;;;4.20;1.73;;;;;;;-2.69;66.65;98575.53;4979105;28;20050;-84
2022/01/16 00:58:46;;;;;;;5.85;2.75;;;;;;;-2.55;66.40;98590.47;4996830;28;20050;-83
2022/01/16 01:01:14;;;;;;;3.28;1.80;;;;;;;-2.60;66.49;98580.09;5000425;28;20054;-82
2022/01/16 01:03:41;;;;;;;4.55;1.98;;;;;;;-2.63;66.29;98571.44;5016148;28;20034;-84
2022/01/16 01:06:09;;;;;;;3.22;1.23;;;;;;;-2.62;66.47;98607.31;5020708;28;20091;-83
2022/01/16 01:08:36;;;;;;;4.07;1.80;;;;;;;-2.47;66.64;98605.28;5024799;28;20033;-81
2022/01/16 01:11:07;;;;;;;3.58;1.73;;;;;;;-2.53;66.61;98602.50;5023675;28;20054;-83
2022/01/16 01:13:55;;;;;;;2.78;1.20;;;;;;;-2.59;66.60;98604.84;5004868;28;20096;-81
2022/01/16 01:16:22;;;;;;;4.50;2.03;;;;;;;-2.49;66.74;98637.59;5002460;28;20046;-83
2022/01/16 01:18:49;;;;;;;4.22;1.73;;;;;;;-2.54;67.45;98645.91;5022726;28;20065;-80
2022/01/16 01:21:27;;;;;;;3.47;1.63;;;;;;;-2.58;67.17;98647.50;5024600;28;20077;-81
2022/01/16 01:23:58;;;;;;;2.80;1.30;;;;;;;-2.58;67.44;98649.16;5024306;28;20035;-81
2022/01/16 01:26:30;;;;;;;2.08;1.40;;;;;;;-2.63;67.25;98635.34;5024631;28;20040;-80
2022/01/16 01:28:57;;;;;;;4.68;1.67;;;;;;;-2.65;67.28;98657.44;5023785;28;20065;-84
2022/01/16 01:31:29;;;;;;;3.40;1.58;;;;;;;-2.89;67.57;98625.91;5024331;28;20042;-83
2022/01/16 01:33:57;;;;;;;5.30;1.90;;;;;;;-2.88;67.65;98665.16;5007679;28;20030;-82
2022/01/16 01:36:24;;;;;;;2.83;1.50;;;;;;;-3.00;67.72;98663.00;5022859;28;20034;-80
2022/01/16 01:38:51;;;;;;;2.53;1.25;;;;;;;-3.03;67.62;98662.88;5016179;28;20058;-80
2022/01/16 01:41:19;;;;;;;2.95;1.58;;;;;;;-3.04;67.58;98678.16;5011856;28;20077;-81
2022/01/16 01:52:05;;;;;;;2.03;1.35;;;;;;;-3.12;66.82;98648.09;4987918;28;20606;-83
2022/01/16 01:54:32;;;;;;;2.72;1.58;;;;;;;-3.06;66.80;98664.44;5002501;28;20141;-82
2022/01/16 01:57:00;;;;;;;1.05;0.95;;;;;;;-3.00;66.62;98680.88;5010485;28;20054;-81
2022/01/16 01:59:27;;;;;;;5.32;1.55;;;;;;;-3.00;66.52;98693.66;5012687;28;20062;-82
2022/01/16 02:01:55;;;;;;;2.45;1.40;;;;;;;-2.93;66.60;98705.84;5003986;28;20487;-82
2022/01/16 02:04:21;;;;;;;6.95;1.70;;;;;;;-3.24;66.61;98673.16;5011821;28;20065;-82
2022/01/16 02:06:49;;;;;;;4.35;1.83;;;;;;;-3.30;66.94;98670.34;5003182;28;20508;-80
2022/01/16 02:09:16;;;;;;;3.40;1.60;;;;;;;-3.09;66.90;98742.72;5022591;28;20057;-81
2022/01/16 02:11:44;;;;;;;2.60;1.52;;;;;;;-3.10;67.44;98747.75;5000343;28;20082;-82
2022/01/16 02:14:47;;;;;;;3.70;1.55;;;;;;;-3.23;67.59;98733.63;5000023;28;20054;-84
2022/01/16 02:28:41;;;;;;;3.45;1.85;;;;;;;-3.50;68.36;98564.88;4983060;28;20427;-80
2022/01/16 02:36:30;;;;;;;1.98;1.30;;;;;;;-3.70;68.97;98625.34;4976561;28;20532;-81
2022/01/16 02:39:00;;;;;;;3.22;1.75;;;;;;;-3.74;69.07;98710.28;4977403;28;20051;-83
2022/01/16 02:41:27;;;;;;;3.50;1.75;;;;;;;-3.75;69.13;98729.81;4977115;28;20059;-80
2022/01/16 02:43:56;;;;;;;4.00;1.98;;;;;;;-3.77;69.29;98776.50;4976895;28;20055;-81
2022/01/16 02:48:50;;;;;;;3.03;1.73;;;;;;;-3.83;69.60;98675.06;4976652;28;20055;-81
2022/01/16 02:51:19;;;;;;;4.40;1.88;;;;;;;-3.86;69.63;98691.91;4976242;28;20398;-81
2022/01/16 02:53:48;;;;;;;5.07;2.10;;;;;;;-3.86;69.60;98742.94;4976641;28;20149;-82
2022/01/16 02:56:16;;;;;;;3.13;1.73;;;;;;;-3.87;69.82;98767.59;4976433;28;20153;-84
2022/01/16 02:58:44;;;;;;;4.28;1.80;;;;;;;-3.87;69.82;98697.81;4976391;28;20146;-80
2022/01/16 03:01:12;;;;;;;2.40;1.65;;;;;;;-3.89;69.60;98705.44;4976707;28;20054;-84
2022/01/16 03:03:40;;;;;;;2.55;1.67;;;;;;;-4.00;69.64;98760.19;4977028;28;20134;-81
2022/01/16 03:06:07;;;;;;;4.13;1.70;;;;;;;-3.95;69.72;98746.84;4974884;28;20093;-83
2022/01/16 03:08:34;;;;;;;3.08;1.58;;;;;;;-3.95;69.52;98761.28;4976653;28;20050;-81
2022/01/16 03:11:20;;;;;;;4.45;1.67;;;;;;;-4.00;69.35;98786.59;4977714;28;20054;-81
2022/01/16 03:13:48;;;;;;;2.20;1.27;;;;;;;-4.15;69.69;98763.84;4951829;28;20146;-84
2022/01/16 03:16:18;;;;;;;4.10;1.65;;;;;;;-4.13;69.69;98743.50;4976490;28;20058;-82
2022/01/16 03:24:17;;;;;;;3.75;2.00;;;;;;;-4.07;69.83;98799.00;4975944;28;20142;-81
2022/01/16 03:26:44;;;;;;;3.10;1.67;;;;;;;-4.09;69.71;98806.59;4979146;28;20520;-84
2022/01/16 03:29:11;;;;;;;4.40;1.67;;;;;;;-4.13;69.73;98805.59;4994778;28;20050;-83
2022/01/16 03:31:38;;;;;;;2.78;1.60;;;;;;;-4.10;69.90;98815.06;4995426;28;20564;-83
2022/01/16 03:34:06;;;;;;;4.55;1.85;;;;;;;-4.11;69.88;98813.31;4981743;28;20054;-84
2022/01/16 03:36:33;;;;;;;3.30;2.10;;;;;;;-4.12;69.74;98803.91;5000595;28;20058;-84
2022/01/16 03:39:01;;;;;;;4.82;2.20;;;;;;;-4.17;69.63;98813.06;4996461;28;20057;-82
2022/01/16 03:41:29;;;;;;;4.95;2.15;;;;;;;-4.20;69.80;98823.09;4964444;28;20073;-83
2022/01/16 03:44:02;;;;;;;6.90;2.30;;;;;;;-4.31;69.59;98825.16;4996658;28;20050;-83
2022/01/16 03:46:34;;;;;;;4.68;2.50;;;;;;;-4.34;69.53;98822.50;4995708;28;20530;-83
2022/01/16 03:49:08;;;;;;;4.80;2.22;;;;;;;-4.25;69.44;98850.94;4996139;28;20553;-81
2022/01/16 03:51:37;;;;;;;5.32;2.50;;;;;;;-4.28;69.68;98843.19;4995550;28;20065;-80
2022/01/16 03:54:06;;;;;;;4.32;2.42;;;;;;;-4.26;69.56;98848.31;4995289;28;20062;-82
2022/01/16 03:56:33;;;;;;;7.20;3.42;;;;;;;-4.27;70.02;98850.00;4994969;28;20137;-82
2022/01/16 03:59:00;;;;;;;4.35;2.28;;;;;;;-4.30;69.81;98857.53;4979212;28;20089;-82
2022/01/16 04:01:27;;;;;;;4.80;2.42;;;;;;;-4.40;69.64;98850.25;4996959;28;20061;-82
2022/01/16 04:03:55;;;;;;;4.57;2.22;;;;;;;-4.33;69.58;98854.81;5001251;28;20054;-82
2022/01/16 04:06:23;;;;;;;4.03;1.92;;;;;;;-4.41;69.80;98838.28;4995616;28;20070;-82
2022/01/16 04:08:53;;;;;;;3.75;2.20;;;;;;;-4.33;69.65;98870.97;4997988;28;20097;-81
2022/01/16 04:11:21;;;;;;;6.87;2.20;;;;;;;-4.45;69.64;98854.25;4995592;28;20101;-80
2022/01/16 04:13:54;;;;;;;4.53;2.33;;;;;;;-4.40;69.82;98858.75;4998346;28;20300;-82
2022/01/16 04:16:23;;;;;;;4.72;1.95;;;;;;;-4.33;69.37;98876.09;4978427;28;20232;-81
2022/01/16 04:18:51;;;;;;;4.15;1.92;;;;;;;-4.33;69.55;98872.66;4996341;28;20046;-81
2022/01/16 04:21:19;;;;;;;3.03;1.77;;;;;;;-4.27;69.60;98892.50;4981214;28;20058;-84
2022/01/16 04:23:47;;;;;;;4.70;2.00;;;;;;;-4.25;69.05;98889.19;4998798;28;20054;-82
2022/01/16 04:26:16;;;;;;;3.88;2.30;;;;;;;-4.19;69.04;98893.72;4995997;28;20050;-83
2022/01/16 04:28:46;;;;;;;3.58;1.60;;;;;;;-4.17;68.69;98877.69;4997178;28;20424;-83
2022/01/16 04:31:15;;;;;;;4.15;2.10;;;;;;;-4.02;68.46;98890.25;4978123;28;20061;-83
2022/01/16 04:33:43;;;;;;;3.55;1.52;;;;;;;-4.07;68.05;98883.19;4972864;28;20053;-81
2022/01/16 04:36:11;;;;;;;2.20;1.65;;;;;;;-3.99;67.95;98905.69;4980153;28;20060;-83
2022/01/16 04:38:44;;;;;;;4.65;1.70;;;;;;;-4.08;67.92;98900.19;4975637;28;20058;-82
2022/01/16 04:43:58;;;;;;;4.80;1.85;;;;;;;-3.88;67.76;98906.19;4976206;28;20050;-82
2022/01/16 04:46:28;;;;;;;3.42;1.75;;;;;;;-3.82;67.43;98903.06;4981569;28;20617;-85
2022/01/16 04:48:57;;;;;;;3.10;1.77;;;;;;;-3.82;67.26;98908.16;4963038;28;20070;-84
2022/01/16 04:51:26;;;;;;;3.03;1.67;;;;;;;-3.79;66.85;98898.94;4979278;28;20050;-82
2022/01/16 04:53:53;;;;;;;3.85;1.95;;;;;;;-3.63;66.67;98915.81;4977436;28;20500;-81
2022/01/16 04:56:20;;;;;;;3.63;1.73;;;;;;;-3.63;66.75;98905.63;4976981;28;20114;-84
2022/01/16 04:58:49;;;;;;;4.63;1.60;;;;;;;-3.59;66.54;98921.91;4977477;28;20054;-84
2022/01/16 05:01:17;;;;;;;4.40;1.90;;;;;;;-3.65;66.49;98911.47;4977969;28;20065;-84
2022/01/16 05:03:44;;;;;;;3.75;2.03;;;;;;;-3.66;66.29;98918.22;4975588;28;20129;-82
2022/01/16 05:06:27;;;;;;;3.83;1.70;;;;;;;-3.51;66.54;98931.69;4975784;28;20050;-82
2022/01/16 05:08:57;;;;;;;4.80;2.13;;;;;;;-3.64;66.45;98908.94;4973603;28;20066;-83
2022/01/16 05:11:26;;;;;;;4.15;2.20;;;;;;;-3.43;66.50;98949.88;4958122;28;20529;-84
2022/01/16 05:16:36;;;;;;;3.92;2.28;;;;;;;-3.34;66.06;98959.63;4975036;28;20420;-82
2022/01/16 05:19:06;;;;;;;4.32;2.00;;;;;;;-3.36;66.34;98939.13;4976150;28;20097;-81
2022/01/16 05:21:33;;;;;;;4.10;1.93;;;;;;;-3.33;66.10;98951.19;4976842;28;20114;-82
2022/01/16 05:24:03;;;;;;;2.33;1.35;;;;;;;-3.44;66.28;98935.38;4975080;28;20497;-81
2022/01/16 05:26:31;;;;;;;3.38;1.55;;;;;;;-3.27;66.58;98953.09;4974728;28;20054;-81
2022/01/16 05:28:58;;;;;;;5.60;1.88;;;;;;;-3.22;66.89;98961.88;4975567;28;20121;-82
2022/01/16 05:31:25;;;;;;;2.08;1.45;;;;;;;-3.22;67.06;98957.63;4974028;28;20085;-83
2022/01/16 05:33:52;;;;;;;1.95;1.42;;;;;;;-3.40;67.01;98934.72;4975529;28;20050;-83
2022/01/16 05:36:20;;;;;;;3.63;1.80;;;;;;;-3.25;67.18;98972.78;4974695;28;20051;-81
2022/01/16 05:38:48;;;;;;;5.93;1.88;;;;;;;-3.44;67.25;98942.16;4974403;28;20422;-81
2022/01/16 05:41:18;;;;;;;3.53;1.35;;;;;;;-3.42;67.31;98954.19;4974017;28;20153;-83
2022/01/16 05:43:45;;;;;;;3.60;1.48;;;;;;;-3.27;67.38;98969.28;4974643;28;20058;-82
2022/01/16 05:46:13;;;;;;;4.53;2.70;;;;;;;-3.14;67.38;98999.72;4974587;28;20054;-81
2022/01/16 05:48:41;;;;;;;4.18;1.92;;;;;;;-3.15;67.60;98976.63;4974646;28;20515;-83
2022/01/16 05:51:08;;;;;;;4.10;1.60;;;;;;;-3.02;67.24;98999.34;4975286;28;20146;-82
2022/01/16 05:53:37;;;;;;;3.13;1.80;;;;;;;-3.01;67.37;98996.00;4975302;28;20117;-83
2022/01/16 05:56:05;;;;;;;2.95;1.65;;;;;;;-3.14;67.59;98984.38;4978502;28;20542;-82
2022/01/16 05:58:33;;;;;;;3.13;1.52;;;;;;;-3.11;67.31;98998.97;4977033;28;20149;-81
2022/01/16 06:01:00;;;;;;;2.10;1.33;;;;;;;-3.02;67.73;99017.25;4977890;28;20074;-81
2022/01/16 06:03:27;;;;;;;2.47;1.33;;;;;;;-3.01;67.87;99011.34;4977688;28;20055;-81
2022/01/16 06:05:54;;;;;;;2.33;1.30;;;;;;;-2.96;67.54;99014.97;4978060;28;20069;-82
2022/01/16 06:08:21;;;;;;;5.10;1.48;;;;;;;-2.96;67.66;99014.97;4978088;28;20050;-83
2022/01/16 06:10:48;;;;;;;2.40;1.33;;;;;;;-2.94;67.33;99013.34;4980104;28;20477;-82
2022/01/16 06:13:15;;;;;;;4.32;1.60;;;;;;;-2.93;67.76;99009.97;4978170;28;20432;-83
2022/01/16 06:15:42;;;;;;;2.10;1.33;;;;;;;-2.90;67.77;99007.56;4980187;28;20054;-83
2022/01/16 06:18:22;;;;;;;3.17;1.98;;;;;;;-2.86;67.58;99020.47;4980869;28;20046;-85
2022/01/16 06:21:00;;;;;;;3.03;1.75;;;;;;;-2.84;67.70;99011.16;4945504;28;20109;-83
2022/01/16 06:23:27;;;;;;;6.80;2.28;;;;;;;-2.84;67.64;99011.16;4984587;28;20047;-82
2022/01/16 06:25:56;;;;;;;3.22;1.80;;;;;;;-2.86;67.91;99000.91;4997317;28;20085;-82
2022/01/16 06:28:24;;;;;;;4.90;1.90;;;;;;;-2.76;67.95;99028.59;4997454;28;20058;-81
2022/01/16 06:30:51;;;;;;;5.05;2.60;;;;;;;-2.84;67.54;98996.69;4997415;28;20325;-85
2022/01/16 06:33:19;;;;;;;5.53;2.50;;;;;;;-2.71;67.67;98995.53;4997783;28;20050;-84
2022/01/16 06:35:48;;;;;;;4.40;2.45;;;;;;;-2.63;67.68;99018.88;4998604;28;20064;-80
2022/01/16 06:38:15;;;;;;;4.40;2.72;;;;;;;-2.63;67.82;99021.44;4982282;28;20050;-82
2022/01/16 06:40:42;;;;;;;5.50;2.70;;;;;;;-2.61;67.61;99004.47;4980083;28;20054;-84
2022/01/16 06:43:09;;;;;;;6.18;3.10;;;;;;;-2.52;67.30;99027.88;4997109;28;20417;-84
2022/01/16 06:45:36;;;;;;;6.07;3.30;;;;;;;-2.84;67.27;98968.59;4995806;28;20065;-84
2022/01/16 06:48:03;;;;;;;6.75;3.20;;;;;;;-2.50;67.58;99028.81;4997318;28;20580;-83
2022/01/16 06:50:30;;;;;;;6.25;3.25;;;;;;;-2.52;67.54;99026.22;5009087;28;20054;-82
2022/01/16 06:52:59;;;;;;;5.32;3.08;;;;;;;-2.60;67.04;99013.88;5015536;28;20054;-84
2022/01/16 06:55:25;;;;;;;4.32;3.05;;;;;;;-2.63;67.14;99013.78;5014966;28;20161;-85
2022/01/16 06:57:53;;;;;;;5.88;3.40;;;;;;;-2.48;66.93;99025.50;5004518;28;20127;-82
2022/01/16 07:00:20;;;;;;;6.55;3.42;;;;;;;-2.42;66.64;99032.56;4998125;28;20058;-86
2022/01/16 07:02:47;;;;;;;5.10;2.92;;;;;;;-2.37;66.40;99030.19;4998102;28;20519;-87
2022/01/16 07:05:15;;;;;;;5.20;2.50;;;;;;;-2.37;65.68;99027.63;4996939;28;20534;-84
2022/01/16 07:07:43;;;;;;;5.18;3.00;;;;;;;-2.39;65.85;99034.38;4996779;28;20081;-82
2022/01/16 07:10:13;;;;;;;7.35;2.85;;;;;;;-2.25;65.10;99052.88;5004633;28;20054;-84
2022/01/16 07:12:43;;;;;;;4.07;2.33;;;;;;;-2.35;63.84;99051.59;4978683;28;20485;-84
2022/01/16 07:15:12;;;;;;;2.60;1.70;;;;;;;-2.37;63.25;99055.78;4981002;28;20141;-87
2022/01/16 07:17:39;;;;;;;3.80;1.85;;;;;;;-2.49;63.30;99039.13;4999493;28;20105;-85
2022/01/16 07:20:11;;;;;;;2.75;1.70;;;;;;;-2.49;63.48;99043.38;4998716;28;20051;-86
2022/01/16 07:22:38;;;;;;;2.97;1.60;;;;;;;-2.31;63.18;99077.38;4998847;28;20061;-87
2022/01/16 07:25:06;;;;;;;1.75;1.50;;;;;;;-2.32;62.88;99051.75;4998986;28;20065;-86
2022/01/16 07:27:33;;;;;;;3.92;1.75;;;;;;;-2.13;62.46;99063.59;5000636;28;20069;-88
2022/01/16 07:30:00;;;;;;;3.45;1.85;;;;;;;-2.01;62.41;99068.34;4998621;28;20562;-88
2022/01/16 07:32:39;;;;;;;;;;;;;;;;;;;;;
2022/01/16 07:35:12;;;;;;;3.30;1.60;;;;;;;-2.08;62.36;99049.31;4997594;28;20579;-83
2022/01/16 07:38:20;;;;;;;3.40;1.92;;;;;;;-1.90;61.70;99067.09;5002616;28;20050;-83
2022/01/16 07:40:48;;;;;;;3.63;2.15;;;;;;;-1.92;62.23;99064.47;4975514;28;20046;-87
2022/01/16 07:43:15;;;;;;;2.85;1.52;;;;;;;-1.98;61.86;99043.75;4986679;28;20046;-87
2022/01/16 07:45:43;;;;;;;4.03;1.70;;;;;;;-1.87;61.26;99065.53;5005352;28;20061;-89
2022/01/16 07:48:12;;;;;;;8.65;4.20;;;;;;;-1.69;60.97;99061.94;4999167;28;20046;-89
2022/01/16 07:50:39;;;;;;;2.17;1.35;;;;;;;-1.82;60.42;99040.09;5000850;28;20073;-84
2022/01/16 07:53:07;;;;;;;2.08;1.40;;;;;;;-1.61;60.25;99070.81;4996615;28;20050;-84
2022/01/16 07:55:37;;;;;;;1.55;1.23;;;;;;;-1.77;59.72;99048.84;4999436;28;20089;-83
2022/01/16 07:58:04;;;;;;;1.77;1.33;;;;;;;-1.53;59.60;99081.34;4979843;28;20145;-87
2022/01/16 08:00:32;;;;;;;3.20;2.35;;;;;;;-1.58;58.68;99070.91;4997230;28;20092;-85
2022/01/16 08:03:00;;;;;;;1.27;0.68;;;;;;;-1.89;57.94;99025.34;4997318;28;20050;-87
2022/01/16 08:05:30;;;;;;;1.73;0.90;;;;;;;-1.67;57.84;99094.47;5000579;28;20564;-81
2022/01/16 08:07:57;;;;;;;1.10;0.70;;;;;;;-2.00;58.15;99049.59;4966648;28;20046;-88
2022/01/16 08:10:27;;;;;;;1.33;0.90;;;;;;;-1.79;58.71;99098.25;4988138;28;20456;-86
2022/01/16 08:12:58;;;;;;;0.50;0.50;;;;;;;-1.86;58.16;99067.28;4978910;28;20062;-84
2022/01/16 08:15:29;;;;;;;1.42;0.77;;;;;;;-1.94;57.79;99045.59;4995427;28;20728;-86
2022/01/16 08:17:56;;;;;;;2.25;0.98;;;;;;;-1.59;58.36;99082.00;4993987;28;20077;-84
2022/01/16 08:20:23;;;;;;;0.88;0.77;;;;;;;-1.49;57.52;99075.53;5000459;28;20624;-84
2022/01/16 08:22:51;;;;;;;0.70;0.70;;;;;;;-1.78;57.68;99041.13;4996707;28;20062;-86
2022/01/16 08:25:18;;;;;;;6.82;3.45;;;;;;;-1.43;57.79;99101.38;4984155;28;20058;-80
2022/01/16 08:27:45;;;;;;;2.78;1.10;;;;;;;-1.60;57.68;99093.03;4998573;28;20065;-83
2022/01/16 08:30:13;;;;;;;1.70;0.85;;;;;;;-1.43;57.15;99093.69;4998884;28;20105;-83
2022/01/16 08:32:43;;;;;;;1.92;1.25;;;;;;;-1.46;57.46;99073.97;4995627;28;20127;-81
2022/01/16 08:35:12;;;;;;;1.98;1.15;;;;;;;-1.21;57.27;99080.00;4995888;28;20508;-86
2022/01/16 08:37:40;;;;;;;3.17;1.50;;;;;;;-1.14;56.69;99064.06;4965253;28;20078;-84
2022/01/16 08:40:08;;;;;;;1.85;1.00;;;;;;;-1.01;56.79;99085.00;4967199;28;20423;-84
2022/01/16 08:42:40;;;;;;;2.28;1.38;;;;;;;-1.13;56.02;99086.31;4995699;28;20054;-83
2022/01/16 08:45:09;;;;;;;1.05;0.88;;;;;;;-1.21;56.99;99084.25;4998536;28;20054;-85
2022/01/16 08:47:39;;;;;;;1.38;1.10;;;;;;;-1.29;55.86;99082.28;4997196;28;20054;-86
2022/01/16 08:50:08;;;;;;;3.35;1.33;;;;;;;-1.54;56.50;99047.19;4978366;28;20077;-83
2022/01/16 08:52:36;;;;;;;1.40;0.85;;;;;;;-1.33;56.24;99087.25;4993533;28;20539;-83
2022/01/16 08:55:03;;;;;;;0.70;0.70;;;;;;;-1.36;56.42;99087.13;4976659;28;20137;-82
2022/01/16 08:57:30;;;;;;;1.13;0.93;;;;;;;-1.33;56.49;99089.81;4992239;28;20508;-83
2022/01/16 08:59:57;;;;;;;1.73;0.98;;;;;;;-1.21;55.77;99110.75;4997821;28;20108;-84
2022/01/16 09:02:26;;;;;;;2.65;1.23;;;;;;;-1.18;55.74;99089.50;4993282;28;20409;-83
2022/01/16 09:04:53;;;;;;;1.90;1.15;;;;;;;-1.10;55.69;99086.44;4977755;28;20057;-82
2022/01/16 09:07:20;;;;;;;2.03;1.38;;;;;;;-1.13;55.58;99094.00;4994986;28;20405;-83
2022/01/16 09:09:48;;;;;;;4.03;1.50;;;;;;;-1.41;55.94;99050.22;4993479;28;20427;-83
2022/01/16 09:12:15;;;;;;;3.60;1.30;;;;;;;-1.06;56.36;99093.38;4994590;28;20119;-84
2022/01/16 09:14:42;;;;;;;4.80;2.72;;;;;;;-0.96;55.88;99096.31;4994208;28;20059;-82
2022/01/16 09:17:09;;;;;;;11.13;4.78;;;;;;;-0.93;55.58;99125.50;4996682;28;20065;-83
2022/01/16 09:19:36;;;;;;;3.05;1.80;;;;;;;-0.99;55.15;99119.25;4997887;28;20097;-84
2022/01/16 09:22:03;;;;;;;1.95;1.20;;;;;;;-1.34;55.16;99095.75;4976817;28;20062;-82
2022/01/16 09:24:31;;;;;;;1.67;1.10;;;;;;;-1.33;56.03;99125.69;4993635;28;20051;-83
2022/01/16 09:27:19;;;;;;;1.98;1.33;;;;;;;-1.74;56.00;99048.06;4997345;28;20082;-85
2022/01/16 09:29:50;;;;;;;2.17;1.40;;;;;;;-1.60;56.69;99079.38;4980672;28;20050;-83
2022/01/16 09:32:18;;;;;;;3.58;1.63;;;;;;;-1.41;56.24;99120.25;4997071;28;20046;-81
2022/01/16 09:34:45;;;;;;;1.52;0.90;;;;;;;-1.56;56.40;99114.53;4980266;28;20471;-83
2022/01/16 09:37:12;;;;;;;1.17;0.90;;;;;;;-1.68;56.22;99117.47;4997418;28;20065;-83
2022/01/16 09:39:39;;;;;;;1.77;1.00;;;;;;;-1.84;57.07;99097.19;4997759;28;20054;-83
2022/01/16 09:42:08;;;;;;;4.03;1.80;;;;;;;-1.79;57.38;99101.66;4997613;28;20423;-85
2022/01/16 09:44:41;;;;;;;2.85;1.52;;;;;;;-1.65;56.73;99102.25;4998066;28;20084;-83
2022/01/16 09:47:09;;;;;;;3.25;1.92;;;;;;;-1.54;56.77;99089.84;4980710;28;20050;-84
2022/01/16 09:49:36;;;;;;;2.47;1.58;;;;;;;-1.47;56.13;99095.25;5005250;28;20114;-83
2022/01/16 09:52:04;;;;;;;3.67;1.83;;;;;;;-1.43;56.09;99098.81;5009550;28;20061;-83
2022/01/16 09:54:34;;;;;;;5.80;2.67;;;;;;;-1.34;55.81;99098.31;5011481;28;20058;-83
2022/01/16 09:57:05;;;;;;;7.22;3.67;;;;;;;-1.29;56.18;99095.09;5014487;28;20060;-85
2022/01/16 09:59:33;;;;;;;9.15;4.18;;;;;;;-1.35;55.65;99088.88;5013533;28;20081;-83
2022/01/16 10:02:00;;;;;;;4.97;1.65;;;;;;;-1.32;55.96;99096.66;4986992;28;20078;-84
2022/01/16 10:04:44;;;;;;;13.27;5.82;;;;;;;-1.14;55.48;99099.94;4983685;28;20046;-86
2022/01/16 10:07:15;;;;;;;17.30;7.25;;;;;;;-1.10;55.75;99088.09;4997146;28;20058;-85
2022/01/16 10:09:43;;;;;;;;;;;;;;;-1.29;55.90;99105.38;5000111;28;20496;-84
2022/01/16 10:12:16;;;;;;;6.63;3.45;;;;;;;-1.24;56.04;99092.72;5002221;28;19925;-84
2022/01/16 10:14:52;;;;;;;12.32;5.05;;;;;;;-1.18;55.65;99090.41;5001134;28;20162;-84
2022/01/16 10:17:24;;;;;;;;;;;;;;;-1.34;56.51;99085.50;4997425;28;20054;-85
2022/01/16 10:20:46;;;;;;;20.55;8.85;;;;;;;-1.17;56.48;99094.69;4985001;28;20008;-86
2022/01/16 10:23:18;;;;;;;5.35;2.60;;;;;;;-1.06;56.01;99098.50;4997990;28;20050;-85
2022/01/16 10:25:49;;;;;;;2.92;1.27;;;;;;;-1.28;55.78;99096.84;4980751;28;20515;-84
2022/01/16 10:28:24;;;;;;;2.00;1.30;;;;;;;-1.52;55.89;99075.41;5002715;28;20066;-85
2022/01/16 10:31:19;;;;;;;3.80;1.35;;;;;;;-1.61;56.24;99091.31;4993106;28;20057;-85
2022/01/16 10:33:54;;;;;;;2.10;1.73;;;;;;;-1.86;56.12;99033.97;4979335;28;20069;-84
2022/01/16 10:36:35;;;;;;;3.97;2.05;;;;;;;-1.67;56.39;99044.97;4995306;28;20050;-83
2022/01/16 10:39:26;;;;;;;1.73;1.63;;;;;;;-1.26;55.88;99097.78;4974116;28;20058;-85
2022/01/16 10:42:17;;;;;;;3.33;1.60;;;;;;;-1.42;55.45;99048.44;4995374;28;20054;-86
2022/01/16 10:45:26;;;;;;;1.10;1.00;;;;;;;-1.26;55.08;99055.91;4981930;28;20060;-86
2022/01/16 10:48:47;;;;;;;1.35;1.00;;;;;;;-1.26;55.10;99050.78;4989831;28;20431;-85
2022/01/16 10:52:06;;;;;;;1.27;1.05;;;;;;;-1.39;55.19;99090.44;4973751;28;20533;-84
2022/01/16 10:54:41;;;;;;;2.83;1.50;;;;;;;-1.78;55.40;99030.88;4957928;28;20050;-83
2022/01/16 10:57:39;;;;;;;1.33;1.05;;;;;;;-1.54;55.79;99047.19;4958228;28;20421;-85
2022/01/16 11:05:15;;;;;;;8.45;4.18;;;;;;;-0.80;54.81;99078.09;4894810;29;20115;-83
2022/01/16 11:11:41;;;;;;;11.13;4.57;;;;;;;-1.30;55.13;99010.47;4952848;29;20083;-84
2022/01/16 11:14:44;;;;;;;14.38;6.10;;;;;;;-0.89;55.00;99058.13;4938882;28;20551;-84
2022/01/16 11:17:38;;;;;;;9.80;4.00;;;;;;;-0.93;54.98;99014.38;4951603;28;20105;-83
2022/01/16 11:21:31;;;;;;;5.40;2.78;;;;;;;-0.75;55.27;99048.38;4966150;28;20051;-83
2022/01/16 11:25:11;;;;;;;19.67;6.88;;;;;;;-0.37;55.29;99102.69;4982686;28;20068;-86
2022/01/16 11:28:24;;;;;;;2.22;1.90;;;;;;;-0.65;54.75;99067.50;4968727;28;20085;-82
2022/01/16 11:31:17;;;;;;;36.45;14.07;;;;;;;-0.46;54.97;99099.81;4980663;28;20047;-84
2022/01/16 11:33:45;;;;;;;31.65;12.35;;;;;;;-0.48;55.22;99099.75;4971407;28;20055;-81
2022/01/16 11:36:23;;;;;;;6.70;2.60;;;;;;;-0.45;54.45;99125.53;4978904;28;20053;-81
2022/01/16 11:38:58;;;;;;;2.33;1.90;;;;;;;-0.56;54.51;99111.47;4966105;28;20058;-81
2022/01/16 11:41:46;;;;;;;2.67;1.83;;;;;;;-0.64;53.89;99118.00;4974356;28;20070;-80
2022/01/16 11:44:26;;;;;;;3.28;2.00;;;;;;;-0.70;54.12;99122.91;4991622;28;20110;-81
2022/01/16 11:46:56;;;;;;;3.42;1.70;;;;;;;-0.71;54.03;99124.59;4982506;28;20488;-81
2022/01/16 11:49:38;;;;;;;3.22;2.15;;;;;;;-0.83;54.39;99121.59;4981417;28;20046;-81
2022/01/16 11:52:15;;;;;;;13.27;4.50;;;;;;;-0.66;54.51;99114.50;4978158;28;20050;-83
2022/01/16 11:54:50;;;;;;;13.23;6.40;;;;;;;-0.66;54.42;99102.56;4976005;28;20425;-83
2022/01/16 11:57:28;;;;;;;11.48;5.90;;;;;;;-0.63;54.03;99101.78;4977044;28;20078;-82
2022/01/16 12:00:10;;;;;;;2.92;2.33;;;;;;;-0.54;54.44;99116.63;4976404;28;20075;-82
2022/01/16 12:02:48;;;;;;;3.60;2.20;;;;;;;-0.69;54.34;99104.13;4992612;28;20051;-81
2022/01/16 12:05:26;;;;;;;4.32;2.60;;;;;;;-0.62;55.75;99100.97;4961232;28;20468;-83
2022/01/16 12:07:57;;;;;;;6.88;2.85;;;;;;;-0.43;55.73;99113.63;4960907;28;20078;-81
2022/01/16 12:10:37;;;;;;;10.73;5.55;;;;;;;-0.31;55.03;99112.31;4961553;28;20046;-83
2022/01/16 12:13:05;;;;;;;11.57;5.13;;;;;;;-0.34;55.53;99095.13;4979098;28;20500;-82
2022/01/16 12:15:33;;;;;;;8.25;4.55;;;;;;;-0.37;54.92;99101.81;4942939;28;20051;-84
2022/01/16 12:18:01;;;;;;;10.43;5.57;;;;;;;-0.48;55.28;99079.22;4975511;28;20066;-82
2022/01/16 12:20:30;;;;;;;9.25;4.50;;;;;;;-0.45;55.53;99088.75;4958259;28;20102;-80
2022/01/16 12:23:04;;;;;;;4.60;2.95;;;;;;;-0.32;55.41;99103.75;4973270;28;20050;-83
2022/01/16 12:25:51;;;;;;;4.90;3.20;;;;;;;-0.28;55.31;99105.59;4974183;28;20142;-78
2022/01/16 12:28:24;;;;;;;5.78;2.65;;;;;;;-0.28;55.76;99112.41;4971003;28;20066;-81
2022/01/16 12:31:02;;;;;;;5.38;3.15;;;;;;;-0.45;55.75;99094.75;4958170;28;20078;-81
2022/01/16 12:33:39;;;;;;;4.90;2.70;;;;;;;-0.38;55.78;99097.53;4973932;28;20090;-81
2022/01/16 12:36:11;;;;;;;3.85;2.58;;;;;;;-0.40;56.08;99104.31;4972183;28;20069;-79
2022/01/16 12:38:44;;;;;;;5.55;2.63;;;;;;;-0.42;56.53;99096.53;4975374;28;20094;-82
2022/01/16 12:41:42;;;;;;;5.55;2.85;;;;;;;-0.45;56.24;99097.31;4974242;28;20062;-82
2022/01/16 12:44:17;;;;;;;6.22;3.45;;;;;;;-0.36;56.63;99101.03;4976327;28;20133;-82
2022/01/16 12:46:46;;;;;;;4.25;2.53;;;;;;;-0.28;56.79;99104.69;4972933;28;20149;-81